createdAt,value
2022-08-28T00:02:03.391Z,10.87
2022-08-28T00:04:30.679Z,10.77
2022-08-28T00:06:58.405Z,13.20
2022-08-28T00:09:25.916Z,15.90
2022-08-28T00:11:53.708Z,17.30
2022-08-28T00:14:22.028Z,20.60
2022-08-28T00:16:50.688Z,21.90
2022-08-28T00:19:24.067Z,19.80
2022-08-28T00:21:51.685Z,19.30
2022-08-28T00:24:19.557Z,21.47
2022-08-28T00:27:05.958Z,23.00
2022-08-28T00:29:33.154Z,23.63
2022-08-28T00:32:00.410Z,28.50
2022-08-28T00:34:32.989Z,28.40
2022-08-28T00:37:01.336Z,28.70
2022-08-28T00:39:28.812Z,26.43
2022-08-28T00:41:58.053Z,27.93
2022-08-28T00:44:28.943Z,33.90
2022-08-28T00:46:59.308Z,28.73
2022-08-28T00:49:35.870Z,28.23
2022-08-28T00:52:08.146Z,31.87
2022-08-28T00:54:40.572Z,25.70
2022-08-28T00:57:14.499Z,29.50
2022-08-28T00:59:41.812Z,28.60
2022-08-28T01:02:09.011Z,32.00
2022-08-28T01:04:36.752Z,32.20
2022-08-28T01:07:08.908Z,37.87
2022-08-28T01:09:45.329Z,35.00
2022-08-28T01:12:23.280Z,32.17
2022-08-28T01:14:53.621Z,38.87
2022-08-28T01:17:24.394Z,32.97
2022-08-28T01:19:58.451Z,30.90
2022-08-28T01:23:03.303Z,37.67
2022-08-28T01:25:34.368Z,37.70
2022-08-28T01:28:04.851Z,38.03
2022-08-28T01:30:32.785Z,39.13
2022-08-28T01:32:59.915Z,38.23
2022-08-28T01:35:33.794Z,41.37
2022-08-28T01:38:01.882Z,34.27
2022-08-28T01:40:38.350Z,37.20
2022-08-28T01:43:22.052Z,33.73
2022-08-28T01:45:54.141Z,37.83
2022-08-28T01:48:24.613Z,40.50
2022-08-28T01:50:52.435Z,32.50
2022-08-28T01:53:25.006Z,31.30
2022-08-28T01:55:54.972Z,34.13
2022-08-28T01:58:23.554Z,27.50
2022-08-28T02:00:53.662Z,39.40
2022-08-28T02:03:23.598Z,37.23
2022-08-28T02:05:51.245Z,38.00
2022-08-28T02:08:18.639Z,34.10
2022-08-28T02:10:47.003Z,33.70
2022-08-28T02:13:14.360Z,37.23
2022-08-28T02:15:42.892Z,40.87
2022-08-28T02:18:10.833Z,38.83
2022-08-28T02:20:38.453Z,38.23
2022-08-28T02:23:06.611Z,36.70
2022-08-28T02:25:33.729Z,39.67
2022-08-28T02:28:00.939Z,38.77
2022-08-28T02:30:28.791Z,47.03
2022-08-28T02:32:56.360Z,38.30
2022-08-28T02:35:23.963Z,36.27
2022-08-28T02:37:51.907Z,38.90
2022-08-28T02:40:23.930Z,36.20
2022-08-28T02:42:52.167Z,40.03
2022-08-28T02:45:20.493Z,32.70
2022-08-28T02:47:48.053Z,35.37
2022-08-28T02:50:19.537Z,31.70
2022-08-28T02:52:47.273Z,38.37
2022-08-28T02:55:17.799Z,39.73
2022-08-28T02:57:46.860Z,33.80
2022-08-28T03:00:20.002Z,43.20
2022-08-28T03:02:47.384Z,35.27
2022-08-28T03:05:17.619Z,40.47
2022-08-28T03:07:45.213Z,38.13
2022-08-28T03:10:12.464Z,39.77
2022-08-28T03:12:39.795Z,41.60
2022-08-28T03:15:08.103Z,41.50
2022-08-28T03:17:36.976Z,30.73
2022-08-28T03:20:10.502Z,44.40
2022-08-28T03:22:57.022Z,36.23
2022-08-28T03:25:24.791Z,33.23
2022-08-28T03:27:53.004Z,30.10
2022-08-28T03:30:21.926Z,35.50
2022-08-28T03:32:49.497Z,31.77
2022-08-28T03:35:17.243Z,33.20
2022-08-28T03:37:44.565Z,33.57
2022-08-28T03:40:12.522Z,27.30
2022-08-28T03:42:39.727Z,28.13
2022-08-28T03:45:10.800Z,32.20
2022-08-28T03:47:40.034Z,36.77
2022-08-28T03:50:12.067Z,24.23
2022-08-28T03:52:41.080Z,31.53
2022-08-28T03:55:11.611Z,26.33
2022-08-28T03:57:39.687Z,25.33
2022-08-28T04:00:11.325Z,25.83
2022-08-28T04:02:42.867Z,23.43
2022-08-28T04:05:11.123Z,28.13
2022-08-28T04:07:39.445Z,32.37
2022-08-28T04:10:07.866Z,28.83
2022-08-28T04:12:36.058Z,25.80
2022-08-28T04:15:05.653Z,31.03
2022-08-28T04:17:33.864Z,30.50
2022-08-28T04:20:01.039Z,30.23
2022-08-28T04:22:30.515Z,23.23
2022-08-28T04:24:57.600Z,32.90
2022-08-28T04:27:24.734Z,27.47
2022-08-28T04:29:51.867Z,31.70
2022-08-28T04:32:19.132Z,28.93
2022-08-28T04:34:46.340Z,26.17
2022-08-28T04:37:13.513Z,27.83
2022-08-28T04:39:40.615Z,40.80
2022-08-28T04:42:07.751Z,27.60
2022-08-28T04:44:35.399Z,28.83
2022-08-28T04:47:02.608Z,31.63
2022-08-28T04:49:29.775Z,24.97
2022-08-28T04:51:56.847Z,25.47
2022-08-28T04:54:23.925Z,27.90
2022-08-28T04:56:51.964Z,20.23
2022-08-28T04:59:19.128Z,20.83
2022-08-28T05:01:46.632Z,20.30
2022-08-28T05:04:13.801Z,21.80
2022-08-28T05:06:46.116Z,23.60
2022-08-28T05:09:17.600Z,20.03
2022-08-28T05:11:47.370Z,18.70
2022-08-28T05:14:17.313Z,14.03
2022-08-28T05:16:53.152Z,29.67
2022-08-28T05:19:21.831Z,18.43
2022-08-28T05:21:49.106Z,14.47
2022-08-28T05:24:16.486Z,16.13
2022-08-28T05:26:43.686Z,15.90
2022-08-28T05:29:16.801Z,14.53
2022-08-28T05:31:44.459Z,19.80
2022-08-28T05:34:14.474Z,27.80
2022-08-28T05:36:41.938Z,22.30
2022-08-28T05:39:11.837Z,22.27
2022-08-28T05:41:43.259Z,27.13
2022-08-28T05:44:14.609Z,23.90
2022-08-28T05:46:44.932Z,18.30
2022-08-28T05:49:13.509Z,18.70
2022-08-28T05:51:42.657Z,14.10
2022-08-28T05:54:10.025Z,19.83
2022-08-28T05:56:39.259Z,18.30
2022-08-28T05:59:08.712Z,20.87
2022-08-28T06:01:46.048Z,8.80
2022-08-28T06:04:23.101Z,12.00
2022-08-28T06:06:50.442Z,21.23
2022-08-28T06:09:28.139Z,11.60
2022-08-28T06:11:59.623Z,20.63
2022-08-28T06:14:27.405Z,13.53
2022-08-28T06:16:56.224Z,19.37
2022-08-28T06:19:25.725Z,16.83
2022-08-28T06:22:01.531Z,19.27
2022-08-28T06:24:34.868Z,18.53
2022-08-28T06:27:02.027Z,15.50
2022-08-28T06:29:29.664Z,12.20
2022-08-28T06:32:01.643Z,15.53
2022-08-28T06:34:29.574Z,21.90
2022-08-28T06:36:56.753Z,16.40
2022-08-28T06:39:24.568Z,21.00
2022-08-28T06:41:52.429Z,13.50
2022-08-28T06:44:21.970Z,16.03
2022-08-28T06:46:52.489Z,12.40
2022-08-28T06:49:20.092Z,15.70
2022-08-28T06:51:47.329Z,22.93
2022-08-28T06:54:21.815Z,10.87
2022-08-28T06:56:51.443Z,16.60
2022-08-28T06:59:18.656Z,12.70
2022-08-28T07:01:45.772Z,12.40
2022-08-28T07:04:14.703Z,15.07
2022-08-28T07:06:46.874Z,11.33
2022-08-28T07:09:14.703Z,16.73
2022-08-28T07:11:46.673Z,12.63
2022-08-28T07:14:13.874Z,18.40
2022-08-28T07:16:41.319Z,23.33
2022-08-28T07:19:11.255Z,17.93
2022-08-28T07:21:42.016Z,18.17
2022-08-28T07:24:11.840Z,11.77
2022-08-28T07:26:41.178Z,15.50
2022-08-28T07:29:10.091Z,20.37
2022-08-28T07:31:45.703Z,17.40
2022-08-28T07:34:14.851Z,12.43
2022-08-28T07:36:43.728Z,15.80
2022-08-28T07:39:13.852Z,17.10
2022-08-28T07:41:43.018Z,21.87
2022-08-28T07:44:33.070Z,11.17
2022-08-28T07:47:05.835Z,16.27
2022-08-28T07:49:35.084Z,14.83
2022-08-28T07:52:02.888Z,12.87
2022-08-28T07:54:30.031Z,21.63
2022-08-28T07:56:57.173Z,11.60
2022-08-28T07:59:24.593Z,10.40
2022-08-28T08:01:52.303Z,19.07
2022-08-28T08:04:22.207Z,12.60
2022-08-28T08:06:55.619Z,10.80
2022-08-28T08:09:26.109Z,11.50
2022-08-28T08:11:55.011Z,11.80
2022-08-28T08:14:22.819Z,8.70
2022-08-28T08:16:50.381Z,17.70
2022-08-28T08:19:19.009Z,13.63
2022-08-28T08:21:53.230Z,17.07
2022-08-28T08:24:26.735Z,18.77
2022-08-28T08:27:00.627Z,10.83
2022-08-28T08:29:38.491Z,12.30
2022-08-28T08:32:14.302Z,16.00
2022-08-28T08:34:46.097Z,13.93
2022-08-28T08:37:14.792Z,13.57
2022-08-28T08:39:43.282Z,24.40
2022-08-28T08:42:28.323Z,14.90
2022-08-28T08:44:59.145Z,13.97
2022-08-28T08:48:03.050Z,19.10
2022-08-28T08:50:35.312Z,11.50
2022-08-28T08:53:26.922Z,15.00
2022-08-28T08:55:57.170Z,14.87
2022-08-28T08:58:37.951Z,11.30
2022-08-28T09:01:05.279Z,13.10
2022-08-28T09:04:15.816Z,19.03
2022-08-28T09:07:01.905Z,20.93
2022-08-28T09:09:43.911Z,13.57
2022-08-28T09:12:21.168Z,13.10
2022-08-28T09:15:11.495Z,12.67
2022-08-28T09:17:47.973Z,12.60
2022-08-28T09:20:32.711Z,10.77
2022-08-28T09:23:02.096Z,11.60
2022-08-28T09:25:50.838Z,26.60
2022-08-28T09:28:34.389Z,16.50
2022-08-28T09:31:19.565Z,15.57
2022-08-28T09:33:54.428Z,17.77
2022-08-28T09:36:33.868Z,15.83
2022-08-28T09:39:31.352Z,13.53
2022-08-28T09:42:32.245Z,18.40
2022-08-28T09:45:16.335Z,13.40
2022-08-28T09:48:00.662Z,14.43
2022-08-28T09:50:42.394Z,17.07
2022-08-28T09:53:09.676Z,15.60
2022-08-28T09:55:43.711Z,14.43
2022-08-28T09:58:11.061Z,17.07
2022-08-28T10:00:51.397Z,12.83
2022-08-28T10:03:22.890Z,8.53
2022-08-28T10:06:00.911Z,15.27
2022-08-28T10:08:48.044Z,12.20
2022-08-28T10:11:36.905Z,11.93
2022-08-28T10:14:45.511Z,11.90
2022-08-28T10:17:36.846Z,11.60
2022-08-28T10:20:18.107Z,8.60
2022-08-28T10:23:27.403Z,11.67
2022-08-28T10:26:15.195Z,12.70
2022-08-28T10:28:49.074Z,19.40
2022-08-28T10:31:40.923Z,12.37
2022-08-28T10:34:32.300Z,7.10
2022-08-28T10:37:33.894Z,12.10
2022-08-28T10:40:29.992Z,14.77
2022-08-28T10:43:20.470Z,21.07
2022-08-28T10:45:49.615Z,11.10
2022-08-28T10:48:54.942Z,11.67
2022-08-28T10:51:45.045Z,9.10
2022-08-28T10:55:04.854Z,15.77
2022-08-28T10:57:42.992Z,33.27
2022-08-28T11:00:16.858Z,8.10
2022-08-28T11:02:55.492Z,13.60
2022-08-28T11:05:26.429Z,9.97
2022-08-28T11:08:04.114Z,10.83
2022-08-28T11:10:36.865Z,9.80
2022-08-28T11:13:09.206Z,12.63
2022-08-28T11:15:37.389Z,16.43
2022-08-28T11:18:17.841Z,17.53
2022-08-28T11:21:09.015Z,12.80
2022-08-28T11:24:00.916Z,11.90
2022-08-28T11:27:00.458Z,12.47
2022-08-28T11:30:02.197Z,9.97
2022-08-28T11:32:32.479Z,12.70
2022-08-28T11:35:20.785Z,13.23
2022-08-28T11:37:51.410Z,12.97
2022-08-28T11:40:32.083Z,11.07
2022-08-28T11:43:15.875Z,9.43
2022-08-28T11:45:45.720Z,10.27
2022-08-28T11:48:23.449Z,10.13
2022-08-28T11:51:02.489Z,9.77
2022-08-28T11:53:53.406Z,9.60
2022-08-28T11:56:46.948Z,10.90
2022-08-28T11:59:38.373Z,7.23
2022-08-28T12:02:39.743Z,9.50
2022-08-28T12:05:09.404Z,4.90
2022-08-28T12:07:49.654Z,6.57
2022-08-28T12:10:22.933Z,5.80
2022-08-28T12:12:59.736Z,7.80
2022-08-28T12:15:29.948Z,9.87
2022-08-28T12:18:12.218Z,8.63
2022-08-28T12:20:51.432Z,12.70
2022-08-28T12:23:28.116Z,10.97
2022-08-28T12:26:10.889Z,8.50
2022-08-28T12:28:54.546Z,11.47
2022-08-28T12:32:11.549Z,9.53
2022-08-28T12:35:07.675Z,7.93
2022-08-28T12:37:51.583Z,14.20
2022-08-28T12:40:37.461Z,18.47
2022-08-28T12:43:15.241Z,8.30
2022-08-28T12:46:03.705Z,8.57
2022-08-28T12:48:51.178Z,9.30
2022-08-28T12:51:26.343Z,12.30
2022-08-28T12:54:01.987Z,7.17
2022-08-28T12:56:34.157Z,9.37
2022-08-28T12:59:34.529Z,11.40
2022-08-28T13:02:11.296Z,9.90
2022-08-28T13:04:53.592Z,10.30
2022-08-28T13:07:40.603Z,6.23
2022-08-28T13:10:39.653Z,7.97
2022-08-28T13:13:22.171Z,9.27
2022-08-28T13:16:06.483Z,6.53
2022-08-28T13:18:44.978Z,11.00
2022-08-28T13:21:28.637Z,10.07
2022-08-28T13:24:22.216Z,7.67
2022-08-28T13:27:00.873Z,8.30
2022-08-28T13:29:28.461Z,9.20
2022-08-28T13:32:16.152Z,10.57
2022-08-28T13:35:13.806Z,8.67
2022-08-28T13:38:00.746Z,8.00
2022-08-28T13:40:57.555Z,7.57
2022-08-28T13:43:29.747Z,8.20
2022-08-28T13:45:58.075Z,8.50
2022-08-28T13:48:27.871Z,5.27
2022-08-28T13:51:05.133Z,7.37
2022-08-28T13:53:38.635Z,5.33
2022-08-28T13:56:06.986Z,8.60
2022-08-28T13:58:34.199Z,6.40
2022-08-28T14:01:02.362Z,5.80
2022-08-28T14:03:39.176Z,9.27
2022-08-28T14:06:12.611Z,5.67
2022-08-28T14:08:41.794Z,4.63
2022-08-28T14:11:12.572Z,6.50
2022-08-28T14:13:47.409Z,7.90
2022-08-28T14:16:26.176Z,6.93
2022-08-28T14:18:54.199Z,10.47
2022-08-28T14:21:24.505Z,5.70
2022-08-28T14:23:51.731Z,9.83
2022-08-28T14:26:19.124Z,7.90
2022-08-28T14:28:46.318Z,5.77
2022-08-28T14:31:14.763Z,6.97
2022-08-28T14:33:45.355Z,8.07
2022-08-28T14:36:21.107Z,8.70
2022-08-28T14:38:53.657Z,17.40
2022-08-28T14:41:22.999Z,11.70
2022-08-28T14:43:50.654Z,6.47
2022-08-28T14:46:24.085Z,5.33
2022-08-28T14:48:51.864Z,11.93
2022-08-28T14:51:19.367Z,5.37
2022-08-28T14:53:47.006Z,8.90
2022-08-28T14:56:14.279Z,9.90
2022-08-28T14:58:41.557Z,4.43
2022-08-28T15:01:08.937Z,5.33
2022-08-28T15:03:37.243Z,7.87
2022-08-28T15:06:08.085Z,8.00
2022-08-28T15:08:36.814Z,6.90
2022-08-28T15:11:14.205Z,6.00
2022-08-28T15:13:46.201Z,4.90
2022-08-28T15:16:30.161Z,4.90
2022-08-28T15:18:59.093Z,6.37
2022-08-28T15:21:33.436Z,4.83
2022-08-28T15:24:03.789Z,13.50
2022-08-28T15:26:33.331Z,12.57
2022-08-28T15:29:04.266Z,10.63
2022-08-28T15:31:38.128Z,6.10
2022-08-28T15:34:28.559Z,6.70
2022-08-28T15:36:57.589Z,5.20
2022-08-28T15:39:45.701Z,6.00
2022-08-28T15:42:13.974Z,7.03
2022-08-28T15:44:41.378Z,7.50
2022-08-28T15:47:08.874Z,6.83
2022-08-28T15:49:43.433Z,7.17
2022-08-28T15:52:18.947Z,14.30
2022-08-28T15:54:46.642Z,5.30
2022-08-28T15:57:14.085Z,6.67
2022-08-28T15:59:49.588Z,8.50
2022-08-28T16:02:23.883Z,8.57
2022-08-28T16:04:53.023Z,6.83
2022-08-28T16:07:22.327Z,5.73
2022-08-28T16:09:49.857Z,4.47
2022-08-28T16:12:18.335Z,6.00
2022-08-28T16:14:45.522Z,3.70
2022-08-28T16:17:12.687Z,6.13
2022-08-28T16:19:41.527Z,7.53
2022-08-28T16:22:10.759Z,11.50
2022-08-28T16:24:38.429Z,6.73
2022-08-28T16:27:09.507Z,6.00
2022-08-28T16:29:38.524Z,3.97
2022-08-28T16:32:06.962Z,7.37
2022-08-28T16:34:35.055Z,6.93
2022-08-28T16:37:04.472Z,4.63
2022-08-28T16:39:32.131Z,7.10
2022-08-28T16:41:59.339Z,8.07
2022-08-28T16:44:26.791Z,10.80
2022-08-28T16:46:55.686Z,8.00
2022-08-28T16:49:23.830Z,8.03
2022-08-28T16:51:51.588Z,9.90
2022-08-28T16:54:20.981Z,12.00
2022-08-28T16:56:48.778Z,13.00
2022-08-28T16:59:18.285Z,7.17
2022-08-28T17:01:46.300Z,5.67
2022-08-28T17:04:20.538Z,9.13
2022-08-28T17:06:47.765Z,8.10
2022-08-28T17:09:15.234Z,4.50
2022-08-28T17:11:42.537Z,11.93
2022-08-28T17:14:12.061Z,8.50
2022-08-28T17:16:39.939Z,5.73
2022-08-28T17:19:07.145Z,14.23
2022-08-28T17:21:53.018Z,9.73
2022-08-28T17:24:20.261Z,6.83
2022-08-28T17:26:47.536Z,7.87
2022-08-28T17:29:15.633Z,10.30
2022-08-28T17:31:42.947Z,9.93
2022-08-28T17:34:10.858Z,11.67
2022-08-28T17:36:40.851Z,22.17
2022-08-28T17:39:13.172Z,8.77
2022-08-28T17:41:41.333Z,8.03
2022-08-28T17:44:09.010Z,7.47
2022-08-28T17:46:37.911Z,11.50
2022-08-28T17:49:07.587Z,6.80
2022-08-28T17:51:43.450Z,13.50
2022-08-28T17:54:18.601Z,7.27
2022-08-28T17:56:46.493Z,5.47
2022-08-28T17:59:15.148Z,8.30
2022-08-28T18:01:45.077Z,8.63
2022-08-28T18:04:24.239Z,15.57
2022-08-28T18:06:55.169Z,4.43
2022-08-28T18:09:28.194Z,9.80
2022-08-28T18:12:00.577Z,9.00
2022-08-28T18:14:27.833Z,7.57
2022-08-28T18:16:55.275Z,12.07
2022-08-28T18:19:23.972Z,8.10
2022-08-28T18:21:51.324Z,6.10
2022-08-28T18:24:18.763Z,10.47
2022-08-28T18:26:47.447Z,11.47
2022-08-28T18:29:15.307Z,9.70
2022-08-28T18:31:43.479Z,13.23
2022-08-28T18:34:11.788Z,9.27
2022-08-28T18:36:41.676Z,8.67
2022-08-28T18:39:10.038Z,11.23
2022-08-28T18:41:44.144Z,15.27
2022-08-28T18:44:15.343Z,10.03
2022-08-28T18:46:44.038Z,11.40
2022-08-28T18:49:12.406Z,11.77
2022-08-28T18:51:43.011Z,19.70
2022-08-28T18:54:13.079Z,8.00
2022-08-28T18:56:40.987Z,9.93
2022-08-28T18:59:09.081Z,8.63
2022-08-28T19:01:36.838Z,10.03
2022-08-28T19:04:05.609Z,10.60
2022-08-28T19:06:33.420Z,17.93
2022-08-28T19:09:00.795Z,8.70
2022-08-28T19:11:31.611Z,13.93
2022-08-28T19:14:03.775Z,9.43
2022-08-28T19:16:32.374Z,8.73
2022-08-28T19:19:00.667Z,9.47
2022-08-28T19:21:29.198Z,7.00
2022-08-28T19:23:56.980Z,16.50
2022-08-28T19:26:26.260Z,6.53
2022-08-28T19:28:54.758Z,15.17
2022-08-28T19:31:23.189Z,8.07
2022-08-28T19:33:51.257Z,10.83
2022-08-28T19:36:18.773Z,13.80
2022-08-28T19:38:46.247Z,10.53
2022-08-28T19:41:14.503Z,11.27
2022-08-28T19:43:44.411Z,12.23
2022-08-28T19:46:19.265Z,10.13
2022-08-28T19:48:52.974Z,15.40
2022-08-28T19:51:23.822Z,7.93
2022-08-28T19:53:58.672Z,8.90
2022-08-28T19:56:32.345Z,7.10
2022-08-28T19:59:02.524Z,8.87
2022-08-28T20:01:37.059Z,11.27
2022-08-28T20:04:07.353Z,9.40
2022-08-28T20:06:35.910Z,10.00
2022-08-28T20:09:04.304Z,8.60
2022-08-28T20:11:31.713Z,9.63
2022-08-28T20:14:05.404Z,11.10
2022-08-28T20:16:38.428Z,10.73
2022-08-28T20:19:07.938Z,13.50
2022-08-28T20:21:39.925Z,6.00
2022-08-28T20:24:11.065Z,10.47
2022-08-28T20:26:38.484Z,7.83
2022-08-28T20:29:08.545Z,10.80
2022-08-28T20:31:40.512Z,12.33
2022-08-28T20:34:09.694Z,7.83
2022-08-28T20:36:36.881Z,10.00
2022-08-28T20:39:07.184Z,13.80
2022-08-28T20:41:35.554Z,10.90
2022-08-28T20:44:06.385Z,10.77
2022-08-28T20:46:40.047Z,10.13
2022-08-28T20:49:14.011Z,7.07
2022-08-28T20:52:01.103Z,9.03
2022-08-28T20:54:37.012Z,12.43
2022-08-28T20:57:10.632Z,10.50
2022-08-28T20:59:40.592Z,10.10
2022-08-28T21:02:15.480Z,14.47
2022-08-28T21:04:44.662Z,12.90
2022-08-28T21:07:13.405Z,10.43
2022-08-28T21:10:04.072Z,8.87
2022-08-28T21:12:28.334Z,11.23
2022-08-28T21:14:55.668Z,14.77
2022-08-28T21:17:29.967Z,7.33
2022-08-28T21:20:04.802Z,9.10
2022-08-28T21:22:35.164Z,11.20
2022-08-28T21:25:06.419Z,14.93
2022-08-28T21:27:34.796Z,11.20
2022-08-28T21:30:02.819Z,9.83
2022-08-28T21:32:32.682Z,15.77
2022-08-28T21:35:02.234Z,8.50
2022-08-28T21:37:29.932Z,6.73
2022-08-28T21:39:59.590Z,8.27
2022-08-28T21:42:28.554Z,6.30
2022-08-28T21:44:55.832Z,11.20
2022-08-28T21:47:24.359Z,11.17
2022-08-28T21:49:57.333Z,11.03
2022-08-28T21:52:29.955Z,16.93
2022-08-28T21:55:08.433Z,11.33
2022-08-28T21:57:36.051Z,15.17
2022-08-28T22:00:15.830Z,12.63
2022-08-28T22:02:43.585Z,7.07
2022-08-28T22:05:10.998Z,10.80
2022-08-28T22:07:38.337Z,5.80
2022-08-28T22:10:06.384Z,10.47
2022-08-28T22:12:33.690Z,11.70
2022-08-28T22:15:01.310Z,42.10
2022-08-28T22:17:28.559Z,11.37
2022-08-28T22:19:55.735Z,9.77
2022-08-28T22:22:41.364Z,16.23
2022-08-28T22:25:09.002Z,8.57
2022-08-28T22:27:36.106Z,12.77
2022-08-28T22:30:05.073Z,9.60
2022-08-28T22:32:32.230Z,13.33
2022-08-28T22:34:59.347Z,9.80
2022-08-28T22:37:26.563Z,13.03
2022-08-28T22:39:53.932Z,8.13
2022-08-28T22:42:21.213Z,17.33
2022-08-28T22:44:48.460Z,8.60
2022-08-28T22:47:15.573Z,10.90
2022-08-28T22:49:46.065Z,13.03
2022-08-28T22:52:14.113Z,9.13
2022-08-28T22:54:41.617Z,16.10
2022-08-28T22:57:08.975Z,12.90
2022-08-28T22:59:36.153Z,5.47
2022-08-28T23:02:03.969Z,8.33
2022-08-28T23:04:31.306Z,12.50
2022-08-28T23:06:58.469Z,10.70
2022-08-28T23:09:25.701Z,11.13
2022-08-28T23:11:53.249Z,11.33
2022-08-28T23:14:20.420Z,9.47
2022-08-28T23:16:47.622Z,7.73
2022-08-28T23:19:17.210Z,9.70
2022-08-28T23:21:44.633Z,12.63
2022-08-28T23:24:16.177Z,9.13
2022-08-28T23:26:45.328Z,8.03
2022-08-28T23:29:14.088Z,7.67
2022-08-28T23:31:42.251Z,6.97
2022-08-28T23:34:09.608Z,12.73
2022-08-28T23:36:39.414Z,6.90
2022-08-28T23:39:10.220Z,8.93
2022-08-28T23:41:37.429Z,9.73
2022-08-28T23:44:08.477Z,6.10
2022-08-28T23:46:37.130Z,11.80
2022-08-28T23:49:10.516Z,10.00
2022-08-28T23:51:38.313Z,10.67
2022-08-28T23:54:06.352Z,7.73
2022-08-28T23:56:34.536Z,12.10
2022-08-28T23:59:01.659Z,6.37
